Time;durP1;ratioP1;P1;durP2;ratioP2;P2;SDS_P1;SDS_P2;PMS_P1;PMS_P2;Temp;Humidity;BMP_temperature;BMP_pressure;BME280_temperature;BME280_humidity;BME280_pressure;Samples;Min_cycle;Max_cycle;Signal;HPM_P1;HPM_P2
2022/06/23 00:00:27;;;;;;;;;;;;;;;25.57;44.23;99360.56;4439056;32;19985;-84
2022/06/23 00:02:54;;;;;;;;;;;;;;;25.45;45.49;99362.91;4448220;32;19989;-84
2022/06/23 00:05:22;;;;;;;;;;;;;;;25.46;45.06;99359.34;4453101;32;20003;-84
2022/06/23 00:07:53;;;;;;;;;;;;;;;25.53;45.20;99365.19;4436250;32;20051;-84
2022/06/23 00:10:24;;;;;;;;;;;;;;;25.46;45.60;99369.94;4444869;32;19984;-84
2022/06/23 00:12:53;;;;;;;;;;;;;;;25.47;44.76;99376.97;4446182;32;19993;-85
2022/06/23 00:15:36;;;;;;;;;;;;;;;25.40;44.74;99369.37;4446016;32;19969;-85
2022/06/23 00:18:03;;;;;;;;;;;;;;;25.47;44.46;99376.09;4443724;32;20015;-84
2022/06/23 00:20:31;;;;;;;;;;;;;;;25.43;43.96;99387.78;4445937;32;19978;-85
2022/06/23 00:23:05;;;;;;;;;;;;;;;25.37;44.35;99381.03;4447513;32;20036;-84
2022/06/23 00:25:33;;;;;;;;;;;;;;;25.51;43.54;99381.16;4441013;32;19969;-85
2022/06/23 00:28:00;;;;;;;;;;;;;;;25.61;43.29;99388.63;4446318;32;20025;-85
2022/06/23 00:30:28;;;;;;;;;;;;;;;25.61;43.17;99399.22;4450632;32;20053;-85
2022/06/23 00:32:55;;;;;;;;;;;;;;;25.44;43.63;99403.62;4461576;32;19972;-84
2022/06/23 00:35:22;;;;;;;;;;;;;;;25.52;43.46;99406.72;4446153;32;19981;-85
2022/06/23 00:37:52;;;;;;;;;;;;;;;25.43;44.26;99401.03;4432078;32;20030;-85
2022/06/23 00:40:20;;;;;;;;;;;;;;;25.50;43.80;99392.69;4447769;32;19993;-84
2022/06/23 00:42:50;;;;;;;;;;;;;;;25.55;42.96;99399.53;4400404;32;20022;-85
2022/06/23 00:45:28;;;;;;;;;;;;;;;25.67;38.41;99398.91;4431932;32;20322;-84
2022/06/23 00:47:55;;;;;;;;;;;;;;;25.64;37.53;99412.31;4438781;32;19977;-85
2022/06/23 00:50:39;;;;;;;;;;;;;;;25.69;36.03;99419.09;4447254;32;20028;-84
2022/06/23 00:53:12;;;;;;;;;;;;;;;25.70;35.96;99425.25;4414301;32;19981;-84
2022/06/23 00:55:47;;;;;;;;;;;;;;;25.68;35.15;99424.47;4434409;32;20040;-84
2022/06/23 00:58:26;;;;;;;;;;;;;;;25.77;35.76;99426.62;4416032;32;20475;-85
2022/06/23 01:00:55;;;;;;;;;;;;;;;25.77;36.33;99431.94;4438278;32;19973;-84
2022/06/23 01:03:27;;;;;;;;;;;;;;;25.66;37.76;99434.31;4416295;32;20004;-85
2022/06/23 01:05:56;;;;;;;;;;;;;;;25.47;38.21;99437.91;4421485;32;20075;-85
2022/06/23 01:08:29;;;;;;;;;;;;;;;25.67;38.23;99436.00;4420235;32;20005;-85
2022/06/23 01:10:56;;;;;;;;;;;;;;;25.73;39.57;99430.37;4424810;32;20673;-84
2022/06/23 01:13:42;;;;;;;;;;;;;;;25.62;37.42;99427.44;4445912;32;20397;-85
2022/06/23 01:16:11;;;;;;;;;;;;;;;25.67;37.24;99425.41;4439120;32;19969;-85
2022/06/23 01:18:38;;;;;;;;;;;;;;;25.66;39.53;99434.31;4416615;32;20005;-85
2022/06/23 01:21:06;;;;;;;;;;;;;;;25.25;40.60;99429.34;4435750;32;19977;-85
2022/06/23 01:23:46;;;;;;;;;;;;;;;25.33;41.07;99426.28;4418250;32;19978;-84
2022/06/23 01:26:31;;;;;;;;;;;;;;;25.35;41.61;99430.59;4417186;32;19997;-84
2022/06/23 01:29:00;;;;;;;;;;;;;;;25.04;45.81;99437.41;4451651;32;19977;-85
2022/06/23 01:31:53;;;;;;;;;;;;;;;24.85;47.43;99444.53;4444212;32;19997;-85
2022/06/23 01:34:56;;;;;;;;;;;;;;;24.95;45.04;99448.47;4444161;32;20275;-85
2022/06/23 01:37:29;;;;;;;;;;;;;;;24.89;46.99;99438.19;4426271;32;19990;-86
2022/06/23 01:40:10;;;;;;;;;;;;;;;24.82;46.16;99448.22;4454149;32;20031;-86
2022/06/23 01:42:44;;;;;;;;;;;;;;;24.74;47.26;99460.09;4446268;32;19989;-87
2022/06/23 01:45:19;;;;;;;;;;;;;;;24.55;47.24;99445.09;4443729;32;20332;-86
2022/06/23 01:47:46;;;;;;;;;;;;;;;24.45;48.37;99427.94;4430900;32;20012;-87
2022/06/23 01:50:13;;;;;;;;;;;;;;;24.52;47.99;99431.16;4452596;32;20235;-86
2022/06/23 01:52:44;;;;;;;;;;;;;;;24.52;47.63;99429.34;4444624;32;19981;-86
2022/06/23 01:55:16;;;;;;;;;;;;;;;24.33;46.79;99429.34;4446793;32;20028;-86
2022/06/23 01:57:50;;;;;;;;;;;;;;;24.23;47.59;99427.22;4433702;32;20440;-85
2022/06/23 02:00:21;;;;;;;;;;;;;;;24.10;48.60;99427.78;4447434;32;20021;-86
2022/06/23 02:02:48;;;;;;;;;;;;;;;24.22;46.39;99430.75;4448965;32;19997;-85
2022/06/23 02:05:34;;;;;;;;;;;;;;;24.02;48.58;99427.25;4454042;32;19986;-85
2022/06/23 02:08:20;;;;;;;;;;;;;;;23.88;49.74;99432.31;4447628;32;19985;-85
2022/06/23 02:10:50;;;;;;;;;;;;;;;23.71;51.04;99441.03;4447097;32;20049;-85
2022/06/23 02:13:19;;;;;;;;;;;;;;;23.57;51.62;99449.50;4433164;32;19989;-85
2022/06/23 02:16:09;;;;;;;;;;;;;;;23.61;50.81;99432.59;4432502;32;20020;-85
2022/06/23 02:18:42;;;;;;;;;;;;;;;23.59;51.04;99436.22;4443027;32;20012;-86
2022/06/23 02:21:18;;;;;;;;;;;;;;;23.35;52.17;99443.41;4456097;32;19995;-87
2022/06/23 02:24:02;;;;;;;;;;;;;;;23.48;51.73;99441.97;4447126;32;19996;-86
2022/06/23 02:26:33;;;;;;;;;;;;;;;23.46;52.06;99435.91;4431850;32;19995;-85
2022/06/23 02:29:15;;;;;;;;;;;;;;;23.31;52.42;99426.84;4436895;32;20019;-87
2022/06/23 02:31:46;;;;;;;;;;;;;;;23.35;52.74;99432.84;4458603;32;20028;-88
2022/06/23 02:34:13;;;;;;;;;;;;;;;23.41;52.89;99437.87;4445016;32;19999;-86
2022/06/23 02:36:43;;;;;;;;;;;;;;;23.50;52.98;99437.47;4443523;32;19993;-86
2022/06/23 02:39:15;;;;;;;;;;;;;;;23.26;53.93;99449.09;4439306;32;19978;-87
2022/06/23 02:41:45;;;;;;;;;;;;;;;23.27;53.80;99456.12;4433314;32;19974;-87
2022/06/23 02:44:18;;;;;;;;;;;;;;;23.41;53.55;99459.87;4438279;32;20008;-87
2022/06/23 02:46:48;;;;;;;;;;;;;;;23.47;53.00;99474.59;4418495;32;20004;-86
2022/06/23 02:49:27;;;;;;;;;;;;;;;23.36;53.33;99474.22;4418040;32;20000;-86
2022/06/23 02:52:33;;;;;;;;;;;;;;;23.11;53.98;99472.59;4422344;32;19989;-86
2022/06/23 02:55:04;;;;;;;;;;;;;;;23.25;52.84;99468.50;4382945;32;19998;-86
2022/06/23 02:57:36;;;;;;;;;;;;;;;23.07;54.32;99476.28;4363636;32;20002;-85
2022/06/23 03:00:26;;;;;;;;;;;;;;;22.96;54.97;99486.41;4418629;32;20404;-86
2022/06/23 03:03:08;;;;;;;;;;;;;;;23.07;54.03;99491.25;4423000;32;20400;-87
2022/06/23 03:05:35;;;;;;;;;;;;;;;23.04;54.55;99492.25;4438142;32;20036;-87
2022/06/23 03:08:21;;;;;;;;;;;;;;;22.96;54.73;99489.91;4442127;32;19981;-87
2022/06/23 03:10:51;;;;;;;;;;;;;;;23.05;53.56;99488.69;4434208;32;20346;-86
2022/06/23 03:13:21;;;;;;;;;;;;;;;23.26;52.80;99491.34;4439611;32;20624;-87
2022/06/23 03:16:00;;;;;;;;;;;;;;;23.25;53.27;99502.84;4430063;32;19997;-87
2022/06/23 03:18:33;;;;;;;;;;;;;;;23.19;54.24;99512.72;4431254;32;19989;-86
2022/06/23 03:21:01;;;;;;;;;;;;;;;23.18;54.19;99516.28;4439807;32;19995;-87
2022/06/23 03:23:38;;;;;;;;;;;;;;;23.14;53.92;99504.16;4429780;32;20039;-87
2022/06/23 03:26:05;;;;;;;;;;;;;;;23.19;53.58;99512.72;4429971;32;20034;-87
2022/06/23 03:28:39;;;;;;;;;;;;;;;23.14;54.17;99514.72;4434988;32;19981;-86
2022/06/23 03:31:08;;;;;;;;;;;;;;;23.35;53.71;99522.66;4437872;32;19973;-87
2022/06/23 03:33:35;;;;;;;;;;;;;;;23.15;54.66;99508.50;4438702;32;19977;-87
2022/06/23 03:36:24;;;;;;;;;;;;;;;23.32;53.98;99506.94;4448655;32;20341;-88
2022/06/23 03:41:59;;;;;;;;;;;;;;;23.16;55.65;99507.56;4439899;32;20036;-86
2022/06/23 03:44:28;;;;;;;;;;;;;;;23.33;54.93;99508.69;4455982;32;20772;-87
2022/06/23 03:47:02;;;;;;;;;;;;;;;23.29;55.13;99515.00;4447230;32;19991;-86
2022/06/23 03:49:40;;;;;;;;;;;;;;;23.46;54.39;99530.16;4442931;32;19981;-86
2022/06/23 03:52:22;;;;;;;;;;;;;;;23.42;54.22;99524.12;4451226;32;20000;-86
2022/06/23 03:55:08;;;;;;;;;;;;;;;23.56;54.01;99534.97;4447450;32;19981;-86
2022/06/23 03:57:37;;;;;;;;;;;;;;;23.49;54.20;99541.47;4453932;32;19985;-87
2022/06/23 04:00:39;;;;;;;;;;;;;;;23.51;54.73;99544.88;4441891;32;20005;-86
2022/06/23 04:03:23;;;;;;;;;;;;;;;23.49;54.27;99546.75;4417937;32;19997;-87
2022/06/23 04:05:56;;;;;;;;;;;;;;;23.31;53.95;99550.13;4445350;32;19976;-86
2022/06/23 04:08:24;;;;;;;;;;;;;;;23.06;53.53;99548.47;4461879;32;20471;-87
2022/06/23 04:10:52;;;;;;;;;;;;;;;23.35;53.00;99544.66;4434968;32;20024;-87
2022/06/23 04:13:23;;;;;;;;;;;;;;;23.63;51.46;99554.94;4447517;32;20371;-87
2022/06/23 04:15:50;;;;;;;;;;;;;;;23.58;50.92;99551.66;4461065;32;20436;-87
2022/06/23 04:18:18;;;;;;;;;;;;;;;23.64;51.11;99548.75;4438703;32;20813;-87
2022/06/23 04:20:54;;;;;;;;;;;;;;;23.81;48.88;99563.06;4446348;32;19985;-85
2022/06/23 04:23:22;;;;;;;;;;;;;;;23.82;50.80;99548.91;4443205;32;19981;-88
2022/06/23 04:25:49;;;;;;;;;;;;;;;23.81;50.86;99552.47;4457013;32;20000;-87
2022/06/23 04:28:26;;;;;;;;;;;;;;;23.95;50.07;99558.03;4451955;32;19999;-84
2022/06/23 04:30:54;;;;;;;;;;;;;;;24.00;49.23;99569.28;4443192;32;20026;-80
2022/06/23 04:33:22;;;;;;;;;;;;;;;23.89;50.83;99563.56;4430389;32;19981;-82
2022/06/23 04:35:50;;;;;;;;;;;;;;;24.02;49.51;99564.75;4405845;32;20003;-81
2022/06/23 04:38:52;;;;;;;;;;;;;;;23.94;50.83;99564.25;4430646;32;20323;-81
2022/06/23 04:41:21;;;;;;;;;;;;;;;24.03;49.86;99569.13;4439385;32;20075;-81
2022/06/23 04:43:50;;;;;;;;;;;;;;;23.90;51.51;99573.25;4418634;32;20031;-81
2022/06/23 04:46:16;;;;;;;;;;;;;;;23.89;51.88;99576.78;4412828;32;20005;-81
2022/06/23 04:48:53;;;;;;;;;;;;;;;24.05;50.51;99583.13;4433149;32;20007;-80
2022/06/23 04:51:26;;;;;;;;;;;;;;;24.10;47.72;99586.44;4423784;32;20268;-82
2022/06/23 04:53:59;;;;;;;;;;;;;;;24.11;47.45;99588.16;4430738;32;19992;-81
2022/06/23 04:56:34;;;;;;;;;;;;;;;24.17;48.71;99591.47;4416197;32;19977;-81
2022/06/23 04:59:07;;;;;;;;;;;;;;;24.15;49.01;99588.87;4431014;32;19989;-81
2022/06/23 05:01:35;;;;;;;;;;;;;;;24.21;48.95;99598.34;4430633;32;19986;-82
2022/06/23 05:04:11;;;;;;;;;;;;;;;24.23;47.64;99596.50;4430713;32;19992;-81
2022/06/23 05:06:39;;;;;;;;;;;;;;;24.38;46.76;99598.47;4401995;32;19981;-81
2022/06/23 05:09:12;;;;;;;;;;;;;;;24.36;45.45;99602.97;4421990;32;20559;-81
2022/06/23 05:11:43;;;;;;;;;;;;;;;24.46;43.09;99606.94;4430425;32;19993;-82
2022/06/23 05:14:25;;;;;;;;;;;;;;;24.33;43.75;99603.94;4435651;32;19997;-82
2022/06/23 05:16:54;;;;;;;;;;;;;;;24.44;42.29;99611.47;4429683;32;20491;-82
2022/06/23 05:19:26;;;;;;;;;;;;;;;24.58;41.32;99614.34;4429976;32;19985;-81
2022/06/23 05:21:56;;;;;;;;;;;;;;;24.55;41.80;99618.91;4420736;32;20031;-80
2022/06/23 05:24:25;;;;;;;;;;;;;;;24.55;42.49;99624.19;4436536;32;19973;-81
2022/06/23 05:26:51;;;;;;;;;;;;;;;24.64;42.99;99617.63;4416643;32;20044;-81
2022/06/23 05:29:27;;;;;;;;;;;;;;;24.69;40.35;99626.22;4435056;32;20015;-81
2022/06/23 05:31:56;;;;;;;;;;;;;;;24.65;41.37;99625.50;4423481;32;19973;-81
2022/06/23 05:34:24;;;;;;;;;;;;;;;24.53;38.28;99626.03;4430480;32;19981;-81
2022/06/23 05:36:53;;;;;;;;;;;;;;;24.69;38.25;99631.50;4426744;32;20050;-80
2022/06/23 05:39:38;;;;;;;;;;;;;;;24.82;37.59;99627.37;4417937;32;20024;-80
2022/06/23 05:42:12;;;;;;;;;;;;;;;24.90;37.09;99629.69;4433196;32;19995;-80
2022/06/23 05:44:43;;;;;;;;;;;;;;;24.89;36.58;99644.72;4425432;32;19991;-79
2022/06/23 05:47:10;;;;;;;;;;;;;;;24.93;37.18;99635.69;4418818;32;19985;-81
2022/06/23 05:49:43;;;;;;;;;;;;;;;25.05;37.48;99639.56;4427106;32;20045;-81
2022/06/23 05:52:14;;;;;;;;;;;;;;;25.04;36.67;99643.97;4418563;32;20415;-80
2022/06/23 05:54:53;;;;;;;;;;;;;;;25.01;36.55;99644.13;4420320;32;19989;-81
2022/06/23 05:57:28;;;;;;;;;;;;;;;25.13;36.95;99653.31;4429586;32;20052;-81
2022/06/23 05:59:57;;;;;;;;;;;;;;;24.99;35.81;99646.00;4433289;32;20060;-81
2022/06/23 06:02:26;;;;;;;;;;;;;;;25.19;36.63;99646.88;4428692;32;19973;-81
2022/06/23 06:04:55;;;;;;;;;;;;;;;25.33;36.36;99649.72;4424097;32;19992;-81
2022/06/23 06:07:26;;;;;;;;;;;;;;;25.43;35.74;99656.31;4405492;32;20305;-82
2022/06/23 06:09:54;;;;;;;;;;;;;;;25.51;32.96;99648.84;4432500;32;20027;-82
2022/06/23 06:12:27;;;;;;;;;;;;;;;25.65;33.81;99647.31;4432231;32;20405;-80
2022/06/23 06:14:57;;;;;;;;;;;;;;;25.80;33.05;99651.88;4423500;32;20311;-81
2022/06/23 06:17:25;;;;;;;;;;;;;;;26.06;33.32;99655.03;4423877;32;19994;-80
2022/06/23 06:19:56;;;;;;;;;;;;;;;26.52;32.94;99656.22;4433724;32;19985;-78
2022/06/23 06:22:45;;;;;;;;;;;;;;;26.80;30.93;99658.25;4450019;32;20022;-83
2022/06/23 06:25:23;;;;;;;;;;;;;;;27.12;30.46;99663.59;4440033;32;19984;-81
2022/06/23 06:27:50;;;;;;;;;;;;;;;27.45;30.35;99670.69;4447748;32;19981;-80
2022/06/23 06:30:18;;;;;;;;;;;;;;;27.55;31.50;99661.25;4447325;32;20020;-80
2022/06/23 06:32:45;;;;;;;;;;;;;;;27.81;29.60;99663.28;4433314;32;20044;-81
2022/06/23 06:35:21;;;;;;;;;;;;;;;28.03;30.02;99662.03;4445769;32;19992;-79
2022/06/23 06:37:49;;;;;;;;;;;;;;;28.21;28.21;99670.75;4447833;32;19996;-80
2022/06/23 06:40:17;;;;;;;;;;;;;;;28.27;29.75;99665.91;4434667;32;19985;-81
2022/06/23 06:42:50;;;;;;;;;;;;;;;28.50;27.09;99671.69;4448586;32;19982;-81
2022/06/23 06:45:20;;;;;;;;;;;;;;;28.62;28.25;99676.28;4433116;32;19984;-81
2022/06/23 06:47:47;;;;;;;;;;;;;;;29.01;28.22;99680.09;4447273;32;20361;-81
2022/06/23 06:50:22;;;;;;;;;;;;;;;28.85;27.95;99679.31;4432944;32;19997;-81
2022/06/23 06:52:49;;;;;;;;;;;;;;;29.14;26.37;99681.03;4252833;32;5001745;-80
2022/06/23 06:55:17;;;;;;;;;;;;;;;29.01;27.06;99672.09;4422657;32;20037;-81
2022/06/23 06:57:49;;;;;;;;;;;;;;;28.84;26.68;99675.78;4416480;32;19995;-81
2022/06/23 07:00:21;;;;;;;;;;;;;;;29.01;27.36;99688.09;4404958;32;20449;-81
2022/06/23 07:02:49;;;;;;;;;;;;;;;28.74;27.61;99691.47;4408352;32;20021;-81
2022/06/23 07:05:19;;;;;;;;;;;;;;;29.12;28.70;99690.94;4401456;32;19970;-81
2022/06/23 07:07:47;;;;;;;;;;;;;;;29.30;26.51;99693.41;4406956;32;20036;-81
2022/06/23 07:10:16;;;;;;;;;;;;;;;29.48;27.40;99686.84;4400293;32;20031;-81
2022/06/23 07:12:48;;;;;;;;;;;;;;;29.29;28.91;99697.00;4405383;32;19981;-83
2022/06/23 07:15:28;;;;;;;;;;;;;;;29.30;26.45;99693.41;4399621;32;19974;-81
2022/06/23 07:17:58;;;;;;;;;;;;;;;28.99;25.26;99695.28;4405195;32;20001;-82
2022/06/23 07:20:26;;;;;;;;;;;;;;;28.95;27.84;99699.13;4401164;32;19974;-81
2022/06/23 07:22:58;;;;;;;;;;;;;;;29.19;27.35;99702.91;4399898;32;20068;-81
2022/06/23 07:25:33;;;;;;;;;;;;;;;28.80;28.66;99700.06;4406484;32;19974;-82
2022/06/23 07:28:20;;;;;;;;;;;;;;;29.02;28.10;99704.94;4402163;32;19993;-82
2022/06/23 07:30:53;;;;;;;;;;;;;;;29.28;25.56;99700.62;4400205;32;20048;-82
2022/06/23 07:33:25;;;;;;;;;;;;;;;29.19;27.27;99705.56;4409544;32;20503;-81
2022/06/23 07:35:52;;;;;;;;;;;;;;;29.66;26.37;99701.72;4405342;32;19998;-81
2022/06/23 07:38:19;;;;;;;;;;;;;;;29.34;29.00;99705.56;4409439;32;20044;-82
2022/06/23 07:40:51;;;;;;;;;;;;;;;29.51;27.26;99712.47;4401754;32;19986;-80
2022/06/23 07:43:26;;;;;;;;;;;;;;;29.70;27.86;99713.03;4399545;32;19982;-80
2022/06/23 07:45:55;;;;;;;;;;;;;;;29.63;29.77;99715.25;4403371;32;20441;-82
2022/06/23 07:48:23;;;;;;;;;;;;;;;30.20;27.04;99716.03;4418200;32;19978;-85
2022/06/23 07:50:50;;;;;;;;;;;;;;;30.31;28.28;99713.47;4414682;32;20077;-83
2022/06/23 07:53:40;;;;;;;;;;;;;;;30.62;25.05;99711.37;4416884;32;20524;-82
2022/06/23 07:56:10;;;;;;;;;;;;;;;30.40;23.53;99707.50;4407238;32;20765;-81
2022/06/23 07:58:40;;;;;;;;;;;;;;;30.44;26.24;99722.38;4405138;32;20148;-82
2022/06/23 08:01:19;;;;;;;;;;;;;;;30.81;26.09;99717.19;4401304;32;20001;-82
2022/06/23 08:03:56;;;;;;;;;;;;;;;31.18;24.33;99719.94;4401049;32;19982;-82
2022/06/23 08:06:24;;;;;;;;;;;;;;;31.28;26.01;99711.13;4399468;32;19989;-82
2022/06/23 08:08:54;;;;;;;;;;;;;;;31.49;23.17;99714.13;4402810;32;20784;-82
2022/06/23 08:14:32;;;;;;;;;;;;;;;31.39;24.88;99713.06;4402455;32;19978;-85
2022/06/23 08:17:03;;;;;;;;;;;;;;;31.19;23.52;99717.16;4399035;32;19978;-84
2022/06/23 08:19:51;;;;;;;;;;;;;;;31.48;23.74;99714.22;4407071;32;19997;-82
2022/06/23 08:22:22;;;;;;;;;;;;;;;31.81;22.76;99718.06;4426977;32;19980;-83
2022/06/23 08:24:56;;;;;;;;;;;;;;;31.91;24.70;99716.47;4428273;32;19990;-82
2022/06/23 08:27:44;;;;;;;;;;;;;;;32.37;22.87;99716.50;4408769;32;20015;-80
2022/06/23 08:30:13;;;;;;;;;;;;;;;32.06;22.27;99715.28;4423513;32;20255;-84
2022/06/23 08:32:41;;;;;;;;;;;;;;;32.10;23.17;99713.22;4429040;32;19997;-81
2022/06/23 08:35:17;;;;;;;;;;;;;;;31.92;22.77;99721.69;4428727;32;19981;-81
2022/06/23 08:37:45;;;;;;;;;;;;;;;31.93;25.31;99717.19;4424228;32;20704;-82
2022/06/23 08:40:19;;;;;;;;;;;;;;;32.01;21.57;99704.09;4430073;32;20000;-82
2022/06/23 08:42:57;;;;;;;;;;;;;;;31.96;23.78;99701.75;4429768;32;19985;-81
2022/06/23 08:45:30;;;;;;;;;;;;;;;32.12;23.15;99706.78;4425597;32;19977;-81
2022/06/23 08:48:16;;;;;;;;;;;;;;;32.77;23.76;99702.72;4414501;32;19996;-82
2022/06/23 08:50:45;;;;;;;;;;;;;;;32.49;22.84;99703.19;4416119;32;20369;-82
2022/06/23 08:53:16;;;;;;;;;;;;;;;32.77;20.74;99710.78;4417558;32;19989;-83
2022/06/23 08:55:46;;;;;;;;;;;;;;;32.66;23.47;99710.75;4429949;32;19997;-82
2022/06/23 08:58:21;;;;;;;;;;;;;;;32.89;20.92;99712.47;4430876;32;19996;-82
2022/06/23 09:01:08;;;;;;;;;;;;;;;32.99;20.81;99709.94;4431248;32;19986;-81
2022/06/23 09:03:39;;;;;;;;;;;;;;;32.52;22.01;99713.66;4425237;32;19981;-83
2022/06/23 09:06:15;;;;;;;;;;;;;;;32.41;22.57;99707.25;4417624;32;19989;-84
2022/06/23 09:08:53;;;;;;;;;;;;;;;32.47;22.19;99705.09;4440945;32;19974;-84
2022/06/23 09:11:31;;;;;;;;;;;;;;;32.59;21.42;99712.19;4431092;32;20002;-87
2022/06/23 09:13:58;;;;;;;;;;;;;;;32.21;21.19;99710.59;4443238;32;20331;-83
2022/06/23 09:16:29;;;;;;;;;;;;;;;32.54;21.23;99707.19;4424446;32;19990;-81
2022/06/23 09:19:00;;;;;;;;;;;;;;;32.79;23.85;99706.13;4442011;32;19974;-82
2022/06/23 09:21:39;;;;;;;;;;;;;;;32.61;23.37;99707.56;4417333;32;19992;-85
2022/06/23 09:24:24;;;;;;;;;;;;;;;32.51;20.95;99709.25;4427382;32;20880;-83
2022/06/23 09:26:58;;;;;;;;;;;;;;;32.98;20.74;99704.72;4445193;32;19981;-82
2022/06/23 09:29:41;;;;;;;;;;;;;;;33.21;19.74;99700.19;4430439;32;20351;-83
2022/06/23 09:32:13;;;;;;;;;;;;;;;32.49;19.48;99700.50;4427655;32;19982;-85
2022/06/23 09:34:49;;;;;;;;;;;;;;;32.95;20.57;99704.91;4425391;32;20016;-85
2022/06/23 09:37:34;;;;;;;;;;;;;;;32.63;23.93;99695.75;4432961;32;20022;-84
2022/06/23 09:40:02;;;;;;;;;;;;;;;33.28;21.74;99702.28;4432648;32;20012;-82
2022/06/23 09:42:56;;;;;;;;;;;;;;;32.81;19.76;99704.19;4437215;32;19977;-83
2022/06/23 09:45:41;;;;;;;;;;;;;;;33.13;21.41;99700.81;4432973;32;20067;-82
2022/06/23 09:48:22;;;;;;;;;;;;;;;32.88;20.49;99700.03;4439445;32;19985;-83
2022/06/23 09:50:49;;;;;;;;;;;;;;;32.74;21.00;99697.59;4443966;32;20023;-83
2022/06/23 09:53:23;;;;;;;;;;;;;;;33.09;20.35;99699.38;4432767;32;20019;-82
2022/06/23 09:55:53;;;;;;;;;;;;;;;32.60;19.08;99690.63;4453208;32;19993;-83
2022/06/23 09:58:20;;;;;;;;;;;;;;;32.58;21.27;99691.72;4432211;32;20029;-82
2022/06/23 10:01:05;;;;;;;;;;;;;;;33.36;19.12;99692.72;4432572;32;20033;-82
2022/06/23 10:03:35;;;;;;;;;;;;;;;32.31;22.22;99690.16;4443475;32;20636;-83
2022/06/23 10:06:11;;;;;;;;;;;;;;;32.66;22.21;99683.94;4432290;32;20000;-81
2022/06/23 10:08:39;;;;;;;;;;;;;;;32.95;23.27;99683.47;4432916;32;19981;-81
2022/06/23 10:11:09;;;;;;;;;;;;;;;32.83;19.43;99694.22;4432117;32;19982;-81
2022/06/23 10:13:54;;;;;;;;;;;;;;;33.02;21.74;99690.06;4434536;32;20013;-83
2022/06/23 10:16:25;;;;;;;;;;;;;;;33.46;19.42;99682.94;4439220;32;19977;-81
2022/06/23 10:19:07;;;;;;;;;;;;;;;33.37;20.26;99683.69;4432484;32;20041;-82
2022/06/23 10:21:48;;;;;;;;;;;;;;;33.90;19.40;99686.50;4432506;32;19973;-82
2022/06/23 10:24:33;;;;;;;;;;;;;;;34.14;18.19;99688.97;4440645;32;19969;-81
2022/06/23 10:27:19;;;;;;;;;;;;;;;33.66;21.45;99702.81;4432310;32;19970;-83
2022/06/23 10:29:55;;;;;;;;;;;;;;;33.88;18.18;99696.53;4439415;32;20322;-82
2022/06/23 10:32:23;;;;;;;;;;;;;;;34.21;17.21;99690.19;4434083;32;19996;-83
2022/06/23 10:34:50;;;;;;;;;;;;;;;33.88;18.00;99689.31;4438835;32;19981;-84
2022/06/23 10:37:28;;;;;;;;;;;;;;;34.13;19.23;99682.75;4438698;32;20005;-82
2022/06/23 10:40:07;;;;;;;;;;;;;;;34.51;17.79;99684.00;4432790;32;19999;-82
2022/06/23 10:43:00;;;;;;;;;;;;;;;34.37;18.97;99681.69;4441588;32;19988;-82
2022/06/23 10:45:30;;;;;;;;;;;;;;;34.59;17.16;99673.50;4435795;32;19996;-82
2022/06/23 10:48:06;;;;;;;;;;;;;;;34.20;19.16;99677.72;4441422;32;19985;-81
2022/06/23 10:50:36;;;;;;;;;;;;;;;33.68;22.21;99685.59;4436594;32;19997;-82
2022/06/23 10:53:25;;;;;;;;;;;;;;;33.90;17.12;99675.78;4431294;32;20023;-82
2022/06/23 10:55:58;;;;;;;;;;;;;;;34.09;19.05;99672.41;4418192;32;20027;-82
2022/06/23 10:58:39;;;;;;;;;;;;;;;33.80;18.36;99671.16;4420434;32;19977;-82
2022/06/23 11:01:25;;;;;;;;;;;;;;;34.40;17.60;99681.41;4433609;32;20018;-82
2022/06/23 11:03:57;;;;;;;;;;;;;;;34.30;17.80;99673.25;4445950;32;20416;-82
2022/06/23 11:06:28;;;;;;;;;;;;;;;33.93;18.44;99654.03;4430620;32;19981;-82
2022/06/23 11:09:01;;;;;;;;;;;;;;;34.02;17.83;99669.41;4421732;32;19998;-82
2022/06/23 11:11:52;;;;;;;;;;;;;;;33.81;20.14;99672.00;4446061;32;19977;-82
2022/06/23 11:14:23;;;;;;;;;;;;;;;33.90;19.44;99675.78;4433997;32;19985;-82
2022/06/23 11:17:09;;;;;;;;;;;;;;;34.17;18.32;99678.81;4447327;32;19974;-83
2022/06/23 11:19:42;;;;;;;;;;;;;;;34.34;17.62;99673.87;4417454;32;19981;-82
2022/06/23 11:22:21;;;;;;;;;;;;;;;34.37;17.86;99676.31;4430481;32;19973;-82
2022/06/23 11:25:07;;;;;;;;;;;;;;;34.34;18.40;99674.72;4424630;32;19970;-83
2022/06/23 11:27:49;;;;;;;;;;;;;;;33.90;17.85;99675.78;4418116;32;19990;-82
2022/06/23 11:30:22;;;;;;;;;;;;;;;34.09;18.77;99667.06;4426520;32;19981;-82
2022/06/23 11:32:57;;;;;;;;;;;;;;;34.45;17.86;99663.88;4395851;32;19978;-83
2022/06/23 11:35:29;;;;;;;;;;;;;;;34.60;16.52;99659.06;4386135;32;20049;-83
2022/06/23 11:38:25;;;;;;;;;;;;;;;34.41;17.60;99659.75;4385723;32;20033;-82
2022/06/23 11:41:10;;;;;;;;;;;;;;;34.60;17.37;99659.06;4387207;32;20250;-81
2022/06/23 11:43:56;;;;;;;;;;;;;;;34.28;16.54;99663.66;4380068;32;20004;-82
2022/06/23 11:46:26;;;;;;;;;;;;;;;34.64;18.20;99649.72;4392314;32;20712;-82
2022/06/23 11:48:54;;;;;;;;;;;;;;;34.52;16.26;99650.75;4381716;32;21379;-84
2022/06/23 11:51:40;;;;;;;;;;;;;;;34.52;17.12;99656.13;4384812;32;19993;-83
2022/06/23 11:54:13;;;;;;;;;;;;;;;34.89;16.57;99658.34;4385540;32;20302;-83
2022/06/23 11:56:43;;;;;;;;;;;;;;;34.77;17.06;99662.09;4385746;32;20026;-83
2022/06/23 11:59:17;;;;;;;;;;;;;;;34.70;18.42;99665.31;4384267;32;19978;-83
2022/06/23 12:01:44;;;;;;;;;;;;;;;34.83;17.31;99672.31;4379868;32;20533;-83
2022/06/23 12:04:28;;;;;;;;;;;;;;;34.83;16.45;99670.47;4385108;32;19978;-82
2022/06/23 12:06:55;;;;;;;;;;;;;;;33.95;16.21;99668.16;4383311;32;19993;-82
2022/06/23 12:09:25;;;;;;;;;;;;;;;34.12;17.16;99664.94;4383620;32;19983;-82
2022/06/23 12:11:53;;;;;;;;;;;;;;;34.27;17.26;99673.53;4383906;32;19986;-83
2022/06/23 12:14:20;;;;;;;;;;;;;;;34.29;18.03;99665.34;4383639;32;20009;-83
2022/06/23 12:16:53;;;;;;;;;;;;;;;34.56;17.48;99663.00;4381923;32;20013;-83
2022/06/23 12:19:20;;;;;;;;;;;;;;;34.04;18.63;99664.72;4383585;32;19997;-83
2022/06/23 12:21:59;;;;;;;;;;;;;;;34.36;16.50;99666.50;4383727;32;20746;-83
2022/06/23 12:24:34;;;;;;;;;;;;;;;34.09;17.19;99670.59;4379823;32;19993;-83
2022/06/23 12:27:06;;;;;;;;;;;;;;;34.20;17.08;99665.13;4420613;32;19980;-82
2022/06/23 12:29:55;;;;;;;;;;;;;;;34.17;17.26;99668.06;4427438;32;20005;-82
2022/06/23 12:32:28;;;;;;;;;;;;;;;34.26;17.28;99667.28;4430436;32;20000;-83
2022/06/23 12:35:08;;;;;;;;;;;;;;;34.37;16.88;99673.63;4426756;32;19999;-83
2022/06/23 12:37:50;;;;;;;;;;;;;;;34.17;17.38;99662.69;4429314;32;19969;-83
2022/06/23 12:40:22;;;;;;;;;;;;;;;34.47;17.37;99663.75;4428886;32;20334;-83
2022/06/23 12:42:52;;;;;;;;;;;;;;;34.31;17.42;99668.75;4415246;32;20365;-83
2022/06/23 12:45:38;;;;;;;;;;;;;;;34.41;16.25;99665.13;4428985;32;19989;-82
2022/06/23 12:48:05;;;;;;;;;;;;;;;33.96;18.60;99665.34;4429028;32;20032;-82
2022/06/23 12:50:37;;;;;;;;;;;;;;;34.30;18.11;99661.66;4428550;32;19997;-82
2022/06/23 12:53:04;;;;;;;;;;;;;;;34.51;15.41;99659.81;4428372;32;20040;-82
2022/06/23 12:55:31;;;;;;;;;;;;;;;34.00;17.03;99650.69;4429946;32;19977;-82
2022/06/23 12:58:17;;;;;;;;;;;;;;;33.79;17.33;99653.34;4430327;32;19981;-82
2022/06/23 13:00:52;;;;;;;;;;;;;;;34.13;18.22;99647.84;4429714;32;20464;-82
2022/06/23 13:03:39;;;;;;;;;;;;;;;34.02;17.98;99653.28;4428537;32;19997;-82
2022/06/23 13:06:22;;;;;;;;;;;;;;;33.77;18.93;99660.69;4427853;32;20358;-82
2022/06/23 13:08:55;;;;;;;;;;;;;;;33.86;18.58;99658.22;4424341;32;20139;-82
2022/06/23 13:11:28;;;;;;;;;;;;;;;33.69;17.96;99656.91;4429922;32;19998;-81
2022/06/23 13:14:01;;;;;;;;;;;;;;;33.52;18.24;99663.69;4422152;32;19989;-83
2022/06/23 13:16:30;;;;;;;;;;;;;;;33.51;18.70;99659.31;4420958;32;19981;-81
2022/06/23 13:19:01;;;;;;;;;;;;;;;33.32;18.85;99655.41;4425977;32;20053;-82
2022/06/23 13:21:29;;;;;;;;;;;;;;;33.64;18.96;99665.37;4425194;32;20398;-81
2022/06/23 13:24:08;;;;;;;;;;;;;;;33.46;18.36;99645.38;4430414;32;19996;-82
2022/06/23 13:26:56;;;;;;;;;;;;;;;33.46;18.40;99653.44;4427067;32;20102;-82
2022/06/23 13:29:24;;;;;;;;;;;;;;;33.48;19.24;99648.78;4428053;32;20097;-82